LFMHLFLL

Guest
Details From LFMH - Saint Etienne Boutheon
To LFLL - Lyon Saint Exupery
Flight Number -
Tags generated
Created
Modified
Stats Distance 35 nm / 65 km
Max Altitude 1,900 ft / 579 m
Waypoints 3
Social Downloads 6
Likes 0
Share VATSIM

Download

Looking for another format? Having issues loading an existing format? Contact us
Advertisement - Login to hide

Notes

Basic altitude profile: - Ascent Rate: 500ft/min - Ascent Speed: 120kts - Cruise Altitude: 2000ft - Cruise Speed: 110kts - Descent Rate: 500ft/min - Descent Speed: 120kts Options: - Use NATs: yes - Use PACOTS: yes - Use low airways: yes - Use high airways: yes

Route

LFMH RUSIT LFLL

ID Type Via Altitude (ft/m) Position (lat/lon) Dist (leg/tot) Name
O LFMH APT - 0 / 0 45.54087 / 4.29645 - / 0 nm Saint Etienne Boutheon
RUSIT FIX - 1,900 / 579 45.66806 / 4.89056 26 / 26 nm
O LFLL APT - 0 / 0 45.72581 / 5.09075 9 / 35 nm Lyon Saint Exupery

Altitude Profile

Advertisement - Login to hide

LFMH

Details ICAO LFMH (EBU)
Name Saint Etienne Boutheon
Region France
Timezone Europe/Paris (UTC+2.0)
Stats Elevation 1,325 ft / 404 m (AMSL)
Location 45.540900° 4.296450°
Runways 1
Magnetic Variation 1.493° E

METAR

LFMH 260700Z AUTO 17005KT CAVOK 20/14 Q1019 NOSIG

Decode

TAF

TAF LFMH 260200Z 2603/2703 15005KT CAVOK

Decode

Departure Runways

ID Width Length Bearing (true/mag) Surface Threshold Overrun Markings Lighting
18 148 ft / 45 m 7,568 ft / 2,307 m 174.93° / 173.44° ASPHALT 984 ft / 300 m 0 ft / 0 m PREC-APP EDGE THRESHOLD
36 148 ft / 45 m 7,568 ft / 2,307 m 354.93° / 353.44° ASPHALT 558 ft / 170 m 0 ft / 0 m PREC-APP EDGE THRESHOLD REIL-OMNI

LFLL

Details ICAO LFLL (LYS)
Name Lyon Saint Exupery
Region France
Timezone Europe/Paris (UTC+2.0)
Stats Elevation 818 ft / 249 m (AMSL)
Location 45.725800° 5.090730°
Runways 2
Magnetic Variation 1.693° E

METAR

LFLL 260700Z VRB03KT CAVOK 20/14 Q1019 NOSIG

Decode

TAF

TAF LFLL 260500Z 2606/2712 VRB05KT CAVOK BECMG 2622/2624 16007KT= TAF LFPG 260500Z 2606/2712 36005KT CAVOK TX33/2615Z TN19/2606Z

Decode

Destination Runways

ID Width Length Bearing (true/mag) Surface Threshold Overrun Markings Lighting
17L 148 ft / 45 m 8,766 ft / 2,672 m 175.14° / 173.45° ASPHALT 0 ft / 0 m 59 ft / 18 m PREC-APP CENTERLINE EDGE THRESHOLD RAIL REIL-OMNI
17R 145 ft / 44 m 13,135 ft / 4,003 m 175.14° / 173.45° ASPHALT 0 ft / 0 m 190 ft / 58 m PREC-APP CENTERLINE EDGE THRESHOLD RAIL REIL-OMNI
35L 145 ft / 44 m 13,135 ft / 4,003 m 355.14° / 353.45° ASPHALT 0 ft / 0 m 184 ft / 56 m PREC-APP CENTERLINE EDGE THRESHOLD CALVERT TDZ REIL-OMNI
35R 148 ft / 45 m 8,766 ft / 2,672 m 355.14° / 353.45° ASPHALT 0 ft / 0 m 62 ft / 19 m PREC-APP CENTERLINE EDGE THRESHOLD CALVERT TDZ REIL-OMNI

Approach Navaids

Runway Type Ident Frequency Range Bearing (true/mag) Slope Elevation
17L GS LSS 109.10 MHz 25 nm / 46 km 175.14° / 173.45 ° 3.00° 818 ft / 249 m (AMSL)
17L LOC-ILS LSS 109.10 MHz 25 nm / 46 km 175.14° / 173.45 ° - 818 ft / 249 m (AMSL)
17L DME LSS 109.10 MHz 18 nm / 33 km - - 775 ft / 236 m (AMSL)
35L OM OM - - 355.16° / 353.47 ° - 937 ft / 286 m (AMSL)
35L LOC-ILS SAN 110.75 MHz 25 nm / 46 km 355.15° / 353.46 ° - 818 ft / 249 m (AMSL)
35L DME SAN 110.75 MHz 18 nm / 33 km - - 810 ft / 247 m (AMSL)
35L GS SAN 110.75 MHz 25 nm / 46 km 355.15° / 353.46 ° 3.00° 818 ft / 249 m (AMSL)
35R GS LSN 111.50 MHz 25 nm / 46 km 355.14° / 353.45 ° 3.00° 818 ft / 249 m (AMSL)
35R LOC-ILS LSN 111.50 MHz 25 nm / 46 km 355.14° / 353.45 ° - 818 ft / 249 m (AMSL)
35R DME LSN 111.50 MHz 18 nm / 33 km - - 812 ft / 247 m (AMSL)

Popular Alternatives